Time;durP1;ratioP1;P1;durP2;ratioP2;P2;SDS_P1;SDS_P2;PMS_P1;PMS_P2;Temp;Humidity;BMP_temperature;BMP_pressure;BME280_temperature;BME280_humidity;BME280_pressure;Samples;Min_cycle;Max_cycle;Signal;HPM_P1;HPM_P2
2023/05/08 00:00:59;;;;;;;5.70;5.20;;;20.00;31.50;;;;;;10485956;28;20223;-74
2023/05/08 00:06:04;;;;;;;6.00;5.53;;;20.00;31.90;;;;;;10483644;28;20220;-73
2023/05/08 00:11:07;;;;;;;5.97;5.47;;;20.00;32.20;;;;;;10487246;28;20228;-74
2023/05/08 00:16:12;;;;;;;5.83;5.43;;;19.90;31.90;;;;;;10483424;28;20267;-74
2023/05/08 00:21:17;;;;;;;5.03;4.63;;;19.90;32.20;;;;;;10483962;28;20627;-75
2023/05/08 00:26:21;;;;;;;6.00;5.50;;;19.80;31.80;;;;;;10485825;28;20227;-75
2023/05/08 00:31:26;;;;;;;6.03;5.43;;;19.80;32.00;;;;;;10480124;28;20232;-75
2023/05/08 00:36:29;;;;;;;6.00;5.60;;;19.70;32.20;;;;;;10480600;28;20676;-75
2023/05/08 00:41:32;;;;;;;5.83;5.33;;;19.70;32.10;;;;;;10485265;28;20231;-74
2023/05/08 00:46:37;;;;;;;5.70;5.20;;;19.70;32.00;;;;;;10479992;28;20735;-76
2023/05/08 00:51:42;;;;;;;6.33;5.73;;;19.60;32.20;;;;;;10483643;28;20248;-75
2023/05/08 00:56:45;;;;;;;5.93;5.53;;;19.60;32.00;;;;;;10482739;28;20233;-74
2023/05/08 01:01:51;;;;;;;6.30;5.80;;;19.50;32.20;;;;;;10480248;28;20717;-69
2023/05/08 01:06:55;;;;;;;5.93;5.43;;;19.50;32.50;;;;;;10477691;28;20231;-72
2023/05/08 01:12:08;;;;;;;5.30;4.90;;;19.40;32.10;;;;;;10481194;28;20227;-72
2023/05/08 01:17:22;;;;;;;5.93;5.43;;;19.30;32.60;;;;;;10482214;28;20232;-75
2023/05/08 01:22:53;;;;;;;5.70;5.30;;;19.20;32.70;;;;;;10483373;28;20665;-75
2023/05/08 01:28:20;;;;;;;5.27;4.77;;;19.10;32.50;;;;;;10482629;28;20235;-75
2023/05/08 01:33:30;;;;;;;5.30;4.80;;;19.10;32.70;;;;;;10480738;28;20711;-72
2023/05/08 01:38:42;;;;;;;5.20;4.80;;;19.00;32.60;;;;;;10480173;28;20232;-69
2023/05/08 01:43:54;;;;;;;5.10;4.70;;;18.90;32.60;;;;;;10478427;28;20220;-68
2023/05/08 01:49:06;;;;;;;5.10;4.70;;;18.80;32.50;;;;;;10475751;28;20770;-69
2023/05/08 01:54:15;;;;;;;5.10;4.70;;;18.70;32.60;;;;;;10480271;28;20768;-69
2023/05/08 01:59:22;;;;;;;5.20;4.80;;;18.70;32.40;;;;;;10475255;28;20236;-69
2023/05/08 02:04:28;;;;;;;4.97;4.57;;;18.60;32.40;;;;;;10477749;28;20307;-69
2023/05/08 02:09:32;;;;;;;5.00;4.63;;;18.50;32.50;;;;;;10478528;28;20228;-68
2023/05/08 02:14:37;;;;;;;4.57;4.27;;;18.40;32.10;;;;;;10476955;28;20231;-74
2023/05/08 02:19:44;;;;;;;5.50;4.97;;;18.30;32.40;;;;;;10481891;28;20235;-74
2023/05/08 02:24:48;;;;;;;5.57;5.00;;;18.20;32.50;;;;;;10479726;28;20334;-74
2023/05/08 02:29:53;;;;;;;5.17;4.77;;;18.20;32.50;;;;;;10478150;28;20227;-68
2023/05/08 02:34:58;;;;;;;4.87;4.47;;;18.10;32.40;;;;;;10469882;28;20231;-69
2023/05/08 02:40:09;;;;;;;5.10;4.70;;;18.00;33.20;;;;;;10477031;28;20236;-70
2023/05/08 02:45:12;;;;;;;5.37;4.90;;;17.90;32.70;;;;;;10477894;28;20720;-69
2023/05/08 02:50:23;;;;;;;5.53;5.13;;;17.80;32.60;;;;;;10476128;28;20236;-74
2023/05/08 02:55:36;;;;;;;5.50;5.10;;;17.80;33.30;;;;;;10480237;28;20229;-68
2023/05/08 03:00:45;;;;;;;5.57;5.17;;;17.70;33.30;;;;;;10475379;28;20264;-69
2023/05/08 03:05:53;;;;;;;5.83;5.43;;;17.60;33.20;;;;;;10476261;28;20705;-68
2023/05/08 03:11:01;;;;;;;6.40;5.90;;;17.50;33.40;;;;;;10477385;28;20235;-68
2023/05/08 03:16:06;;;;;;;6.10;5.70;;;17.40;34.40;;;;;;10476939;28;20227;-74
2023/05/08 03:21:12;;;;;;;6.67;6.17;;;17.30;33.60;;;;;;10477498;28;20750;-72
2023/05/08 03:26:19;;;;;;;6.80;6.30;;;17.20;34.00;;;;;;10478701;28;20266;-75
2023/05/08 03:31:23;;;;;;;6.47;5.97;;;17.20;34.00;;;;;;10479789;28;20262;-74
2023/05/08 03:36:27;;;;;;;6.83;6.03;;;17.10;34.00;;;;;;10484768;28;21073;-74
2023/05/08 03:41:31;;;;;;;6.43;5.93;;;17.10;34.00;;;;;;10482973;28;20236;-74
2023/05/08 03:46:35;;;;;;;6.83;6.33;;;17.00;33.90;;;;;;10481487;28;20727;-75
2023/05/08 03:51:41;;;;;;;7.10;6.50;;;17.00;33.90;;;;;;10482760;28;20608;-74
2023/05/08 03:56:44;;;;;;;6.73;6.23;;;17.00;33.90;;;;;;10485937;28;20789;-74
2023/05/08 04:01:54;;;;;;;7.30;6.70;;;17.00;33.90;;;;;;10485412;28;20316;-72
2023/05/08 04:07:06;;;;;;;6.33;5.83;;;16.90;34.30;;;;;;10483443;28;20251;-73
2023/05/08 04:12:16;;;;;;;7.30;6.70;;;16.90;34.90;;;;;;10481687;28;20228;-72
2023/05/08 04:17:34;;;;;;;6.73;6.13;;;16.80;34.80;;;;;;10482779;28;20236;-69
2023/05/08 04:22:40;;;;;;;7.23;6.73;;;16.80;35.00;;;;;;10482997;28;20235;-70
2023/05/08 04:27:44;;;;;;;6.37;5.87;;;16.80;35.00;;;;;;10475633;28;20229;-72
2023/05/08 04:32:49;;;;;;;6.40;6.00;;;16.80;34.60;;;;;;10483237;28;20735;-74
2023/05/08 04:37:54;;;;;;;7.13;6.63;;;16.80;34.70;;;;;;10479659;28;20289;-75
2023/05/08 04:42:57;;;;;;;7.00;6.50;;;16.80;35.10;;;;;;10478004;28;20232;-69
2023/05/08 04:48:00;;;;;;;6.83;6.33;;;16.80;34.70;;;;;;10477101;28;20568;-74
2023/05/08 04:53:05;;;;;;;7.03;6.53;;;16.80;34.80;;;;;;10481507;28;20278;-72
2023/05/08 04:58:10;;;;;;;6.60;6.10;;;16.80;35.30;;;;;;10476891;28;20604;-74
2023/05/08 05:03:13;;;;;;;6.57;5.97;;;16.80;35.10;;;;;;10477925;28;20228;-77
2023/05/08 05:08:18;;;;;;;6.53;6.03;;;16.80;35.30;;;;;;10475227;28;20232;-75
2023/05/08 05:13:21;;;;;;;6.90;6.30;;;16.90;35.50;;;;;;10479382;28;20650;-74
2023/05/08 05:18:30;;;;;;;6.27;5.77;;;16.90;35.20;;;;;;10476567;28;20225;-73
2023/05/08 05:23:35;;;;;;;7.40;6.57;;;16.90;35.40;;;;;;10476745;28;20220;-74
2023/05/08 05:28:38;;;;;;;7.73;7.13;;;16.90;37.00;;;;;;10476819;28;20229;-76
2023/05/08 05:33:42;;;;;;;7.30;6.70;;;17.00;36.20;;;;;;10478691;28;20228;-76
2023/05/08 05:38:46;;;;;;;7.00;6.30;;;17.00;35.40;;;;;;10476545;28;20236;-76
2023/05/08 05:43:50;;;;;;;6.57;5.97;;;17.00;35.60;;;;;;10479961;28;20808;-76
2023/05/08 05:48:53;;;;;;;6.40;5.90;;;17.00;35.30;;;;;;10474976;28;20719;-75
2023/05/08 05:53:57;;;;;;;6.57;6.07;;;17.00;35.40;;;;;;10479402;28;20227;-76
2023/05/08 05:59:01;;;;;;;7.00;6.50;;;17.00;35.40;;;;;;10473414;28;20270;-76
2023/05/08 06:04:04;;;;;;;6.70;6.20;;;17.00;35.00;;;;;;10471002;28;20688;-69
2023/05/08 06:09:09;;;;;;;6.87;6.33;;;17.00;35.00;;;;;;10465909;28;20228;-69
2023/05/08 06:14:12;;;;;;;7.23;6.63;;;16.90;35.10;;;;;;10460090;28;20200;-72
2023/05/08 06:19:15;;;;;;;6.43;5.93;;;16.90;34.60;;;;;;10460588;28;20228;-69
2023/05/08 06:24:20;;;;;;;7.07;6.47;;;16.90;34.70;;;;;;10460409;28;20208;-69
2023/05/08 06:29:23;;;;;;;6.93;6.37;;;16.90;34.80;;;;;;10462457;28;20220;-71
2023/05/08 06:34:26;;;;;;;6.10;5.60;;;16.90;34.80;;;;;;10460889;28;20200;-71
2023/05/08 06:39:30;;;;;;;6.23;5.73;;;16.80;34.80;;;;;;10469120;28;20220;-69
2023/05/08 14:11:17;;;;;;;5.97;5.47;;;22.30;33.00;;;;;;13066650;22;20196;-71
2023/05/08 14:16:19;;;;;;;5.38;4.97;;;22.40;32.40;;;;;;12799080;23;1306311;-72
2023/05/08 14:21:23;;;;;;;5.23;4.83;;;22.40;32.60;;;;;;12844549;23;20678;-71
2023/05/08 14:26:27;;;;;;;5.47;4.60;;;22.30;32.40;;;;;;12843195;23;20208;-71
2023/05/08 14:35:19;;;;;;;4.70;4.30;;;22.30;31.90;;;;;;10490286;27;20938;-66
2023/05/08 14:40:23;;;;;;;5.20;4.77;;;22.00;31.60;;;;;;10474814;27;20228;-66
2023/05/08 14:45:26;;;;;;;4.50;4.20;;;22.00;32.00;;;;;;10481829;27;20281;-66
2023/05/08 14:50:31;;;;;;;4.47;4.17;;;22.00;31.80;;;;;;10483170;27;20223;-66
2023/05/08 14:55:34;;;;;;;4.40;4.10;;;22.00;31.10;;;;;;10466658;28;20598;-66
2023/05/08 15:00:38;;;;;;;4.70;4.30;;;22.00;31.10;;;;;;10484321;27;21052;-65
2023/05/08 15:05:43;;;;;;;5.17;4.77;;;21.90;31.40;;;;;;10471321;27;20232;-66
2023/05/08 15:10:46;;;;;;;5.00;4.60;;;21.90;31.30;;;;;;10482153;27;20347;-65
2023/05/08 15:15:49;;;;;;;4.50;4.20;;;21.90;31.80;;;;;;10474035;27;20220;-65
2023/05/08 15:20:54;;;;;;;4.60;4.20;;;21.90;31.80;;;;;;10468575;27;20228;-66
2023/05/08 15:25:57;;;;;;;3.63;3.43;;;21.90;31.10;;;;;;10483644;27;20225;-65
2023/05/08 15:31:03;;;;;;;4.47;4.10;;;21.90;31.20;;;;;;10477345;27;20255;-65
2023/05/08 15:36:08;;;;;;;4.87;4.47;;;21.80;30.30;;;;;;10474143;27;20228;-66
2023/05/08 15:41:12;;;;;;;4.97;4.57;;;21.80;30.70;;;;;;10472016;27;20231;-65
2023/05/08 15:46:17;;;;;;;6.07;5.60;;;21.80;31.10;;;;;;10455544;28;20224;-66
2023/05/08 15:51:22;;;;;;;5.70;5.30;;;21.90;31.10;;;;;;10449493;28;20776;-65
2023/05/08 15:56:25;;;;;;;5.90;5.40;;;21.90;30.90;;;;;;10449411;28;20229;-65
2023/05/08 16:01:28;;;;;;;5.77;5.27;;;21.90;31.10;;;;;;10445483;28;20229;-65
2023/05/08 16:06:33;;;;;;;5.47;4.97;;;21.90;30.60;;;;;;10449253;28;20225;-65
2023/05/08 16:11:36;;;;;;;5.37;5.07;;;21.90;30.40;;;;;;10441256;28;20229;-65
2023/05/08 16:16:40;;;;;;;4.50;4.20;;;21.80;30.50;;;;;;10448599;28;20241;-65
2023/05/08 16:21:45;;;;;;;5.30;4.90;;;21.80;30.50;;;;;;10444629;28;20236;-65
2023/05/08 16:26:48;;;;;;;5.07;4.67;;;21.80;30.10;;;;;;10442739;28;20228;-65
2023/05/08 16:31:51;;;;;;;5.13;4.73;;;21.80;30.50;;;;;;10451533;28;20228;-65
2023/05/08 16:36:57;;;;;;;5.20;4.80;;;21.80;30.50;;;;;;10444285;28;20225;-65
2023/05/08 16:42:00;;;;;;;5.67;5.27;;;21.80;30.40;;;;;;10444146;28;20225;-65
2023/05/08 16:47:04;;;;;;;6.50;6.00;;;21.80;30.50;;;;;;10449943;28;20232;-66
2023/05/08 16:52:08;;;;;;;6.40;5.90;;;21.80;30.40;;;;;;10440269;28;20394;-65
2023/05/08 16:57:11;;;;;;;5.87;5.33;;;21.80;30.30;;;;;;10448685;28;20236;-65
2023/05/08 17:02:17;;;;;;;6.00;5.60;;;21.80;30.60;;;;;;10441564;28;20227;-65
2023/05/08 17:07:23;;;;;;;6.40;5.90;;;21.80;30.40;;;;;;10445030;28;20229;-65
2023/05/08 17:12:26;;;;;;;5.37;4.97;;;21.90;30.40;;;;;;10441355;28;20616;-65
2023/05/08 17:17:29;;;;;;;6.57;5.97;;;21.90;30.60;;;;;;10444437;28;20671;-65
2023/05/08 17:22:34;;;;;;;6.47;5.97;;;21.90;31.30;;;;;;10442706;28;20837;-65
2023/05/08 17:27:37;;;;;;;6.03;5.57;;;22.00;30.30;;;;;;10444589;28;20232;-65
2023/05/08 17:32:40;;;;;;;6.23;5.73;;;22.10;30.50;;;;;;10442514;28;20774;-65
2023/05/08 17:37:45;;;;;;;6.00;5.50;;;22.20;30.30;;;;;;10435054;28;20225;-65
2023/05/08 17:42:48;;;;;;;7.10;5.83;;;22.10;29.70;;;;;;10433808;28;20287;-65
2023/05/08 17:47:51;;;;;;;5.77;5.30;;;22.10;30.00;;;;;;10434740;28;20212;-65
2023/05/08 17:52:56;;;;;;;6.90;6.27;;;22.00;30.00;;;;;;10430293;28;20244;-65
2023/05/08 17:58:03;;;;;;;6.50;6.00;;;22.00;30.00;;;;;;10422421;28;20874;-65
2023/05/08 18:03:08;;;;;;;6.33;5.83;;;21.90;29.90;;;;;;10420074;28;20759;-65
2023/05/08 18:08:13;;;;;;;6.73;6.23;;;21.90;30.10;;;;;;10422977;28;20225;-65
2023/05/08 18:13:16;;;;;;;6.33;5.87;;;21.80;30.00;;;;;;10425982;28;20282;-65
2023/05/08 18:18:19;;;;;;;6.50;6.00;;;21.80;30.30;;;;;;10426567;28;21052;-65
2023/05/08 18:23:24;;;;;;;6.37;5.90;;;21.80;30.40;;;;;;10425030;28;20236;-65
2023/05/08 18:28:27;;;;;;;6.33;5.93;;;21.70;30.30;;;;;;10430583;28;20669;-65
2023/05/08 18:33:30;;;;;;;6.63;5.80;;;21.70;30.50;;;;;;10435014;28;20232;-65
2023/05/08 18:38:35;;;;;;;6.37;5.87;;;21.70;30.40;;;;;;10432734;28;20239;-65
2023/05/08 18:43:40;;;;;;;6.43;5.93;;;21.60;30.20;;;;;;10443973;28;20240;-65
2023/05/08 18:48:43;;;;;;;7.07;6.53;;;21.60;30.30;;;;;;10430014;28;20240;-65
2023/05/08 18:53:48;;;;;;;8.47;6.73;;;21.50;30.50;;;;;;10440842;28;20233;-65
2023/05/08 18:58:51;;;;;;;6.73;6.23;;;21.50;30.50;;;;;;10437015;28;20224;-65
2023/05/08 19:03:54;;;;;;;5.70;5.23;;;21.40;30.50;;;;;;10441118;28;20235;-65
2023/05/08 19:08:59;;;;;;;5.40;5.00;;;21.30;30.80;;;;;;10435719;28;20705;-65
2023/05/08 19:14:02;;;;;;;7.43;6.83;;;21.20;30.80;;;;;;10445683;28;20229;-65
2023/05/08 19:19:06;;;;;;;7.17;6.50;;;21.20;30.60;;;;;;10445906;28;21197;-65
2023/05/08 19:24:10;;;;;;;5.53;5.03;;;21.00;30.60;;;;;;10448973;28;20239;-66
2023/05/08 19:29:13;;;;;;;6.10;5.60;;;20.90;30.80;;;;;;10451703;28;20231;-66
2023/05/08 19:34:17;;;;;;;6.90;6.40;;;20.90;30.70;;;;;;10438993;28;20225;-65
2023/05/08 19:39:21;;;;;;;6.37;5.87;;;20.70;30.50;;;;;;10440628;28;20359;-65
2023/05/08 19:44:25;;;;;;;6.90;6.40;;;20.60;30.80;;;;;;10440117;28;20232;-65
2023/05/08 19:49:29;;;;;;;7.63;7.03;;;20.50;30.80;;;;;;10443546;28;20297;-65
2023/05/08 19:54:34;;;;;;;6.83;6.33;;;20.40;30.90;;;;;;10445629;28;20237;-65
2023/05/08 19:59:37;;;;;;;7.50;6.87;;;20.30;31.20;;;;;;10440885;28;20221;-65
2023/05/08 20:04:40;;;;;;;7.10;6.60;;;20.20;31.20;;;;;;10445247;28;20232;-65
2023/05/08 20:10:06;;;;;;;6.00;5.43;;;20.20;31.30;;;;;;10447145;28;20362;-65
2023/05/08 20:15:10;;;;;;;6.53;5.93;;;20.10;31.50;;;;;;10444262;28;20973;-65
2023/05/08 20:20:14;;;;;;;6.40;5.90;;;20.00;31.50;;;;;;10442230;28;20387;-65
2023/05/08 20:25:19;;;;;;;5.37;4.97;;;19.90;31.50;;;;;;10442761;28;20239;-65
2023/05/08 20:30:22;;;;;;;5.03;4.63;;;19.80;31.70;;;;;;10440143;28;20232;-65
2023/05/08 20:35:26;;;;;;;4.83;4.43;;;19.70;31.60;;;;;;10441692;28;20244;-65
2023/05/08 20:40:30;;;;;;;4.93;4.57;;;19.60;31.60;;;;;;10420047;28;20279;-65
2023/05/08 20:45:33;;;;;;;6.10;5.60;;;19.60;32.00;;;;;;10421875;28;20241;-65
2023/05/08 20:50:37;;;;;;;6.27;5.77;;;19.50;31.70;;;;;;10439612;28;20307;-64
2023/05/08 20:55:41;;;;;;;7.70;7.10;;;19.40;31.60;;;;;;10447250;28;20561;-65
2023/05/08 21:00:44;;;;;;;5.77;5.33;;;19.40;31.90;;;;;;10444405;28;20248;-65
2023/05/08 21:05:47;;;;;;;7.47;6.87;;;19.30;31.90;;;;;;10451120;28;20225;-65
2023/05/08 21:10:52;;;;;;;6.87;6.27;;;19.20;31.90;;;;;;10441292;28;20225;-65
2023/05/08 21:15:55;;;;;;;6.60;6.10;;;19.10;32.00;;;;;;10449497;28;20225;-65
2023/05/08 21:20:59;;;;;;;8.07;7.43;;;19.00;31.90;;;;;;10444951;28;20224;-65
2023/05/08 21:26:03;;;;;;;7.60;6.90;;;18.90;32.00;;;;;;10446618;28;20220;-66
2023/05/08 21:31:06;;;;;;;7.07;6.47;;;18.80;32.10;;;;;;10445682;28;20878;-65
2023/05/08 21:36:09;;;;;;;8.13;7.43;;;18.70;32.00;;;;;;10446400;28;21123;-65
2023/05/08 21:41:14;;;;;;;7.60;7.00;;;18.60;32.10;;;;;;10445505;28;20224;-65
2023/05/08 21:46:17;;;;;;;7.77;6.97;;;18.50;32.40;;;;;;10444450;28;20228;-65
2023/05/08 21:51:21;;;;;;;7.93;7.33;;;18.50;32.40;;;;;;10441675;28;20323;-65
2023/05/08 21:56:25;;;;;;;8.00;7.20;;;18.40;32.30;;;;;;10446014;28;20722;-65
2023/05/08 22:01:28;;;;;;;8.73;8.00;;;18.30;32.50;;;;;;10436460;28;20635;-65
2023/05/08 22:06:32;;;;;;;8.60;7.90;;;18.20;32.20;;;;;;10436967;28;20584;-65
2023/05/08 22:11:37;;;;;;;6.30;5.80;;;18.10;32.30;;;;;;10440721;28;20752;-65
2023/05/08 22:16:41;;;;;;;6.20;5.70;;;18.00;32.60;;;;;;10445132;28;20243;-64
2023/05/08 22:21:44;;;;;;;5.83;5.43;;;17.90;32.40;;;;;;10442140;28;20237;-64
2023/05/08 22:26:48;;;;;;;6.80;6.20;;;17.80;32.40;;;;;;10441885;28;20235;-64
2023/05/08 22:31:52;;;;;;;7.80;7.20;;;17.80;32.80;;;;;;10448051;28;20327;-65
2023/05/08 22:36:55;;;;;;;7.30;6.63;;;17.70;32.60;;;;;;10442986;28;20225;-65
2023/05/08 22:42:00;;;;;;;6.37;5.77;;;17.60;32.70;;;;;;10445194;28;20631;-65
2023/05/08 22:47:04;;;;;;;6.27;5.87;;;17.60;33.00;;;;;;10452336;28;20704;-65
2023/05/08 22:52:08;;;;;;;8.00;7.30;;;17.50;32.80;;;;;;10442375;28;20303;-65
2023/05/08 22:57:13;;;;;;;7.77;7.17;;;17.40;32.80;;;;;;10452729;28;20240;-65
2023/05/08 23:02:16;;;;;;;7.43;6.83;;;17.40;33.00;;;;;;10448918;28;20236;-65
2023/05/08 23:07:20;;;;;;;7.30;6.70;;;17.30;32.80;;;;;;10447429;28;20631;-65
2023/05/08 23:12:24;;;;;;;7.53;6.93;;;17.20;32.70;;;;;;10450664;28;20229;-65
2023/05/08 23:17:28;;;;;;;7.80;7.20;;;17.10;32.90;;;;;;10452073;28;20308;-64
2023/05/08 23:22:31;;;;;;;7.43;6.83;;;16.90;32.80;;;;;;10451957;28;20251;-65
2023/05/08 23:27:35;;;;;;;7.87;7.20;;;16.80;33.20;;;;;;10457127;28;20263;-65
2023/05/08 23:32:39;;;;;;;7.23;6.73;;;16.60;33.50;;;;;;10447584;28;20239;-65
2023/05/08 23:37:42;;;;;;;6.83;6.23;;;16.50;33.40;;;;;;10450242;28;20782;-65
2023/05/08 23:42:46;;;;;;;6.90;6.30;;;16.40;33.40;;;;;;10446445;28;20229;-65
2023/05/08 23:47:49;;;;;;;5.60;5.20;;;16.30;33.30;;;;;;10448376;28;20224;-65
2023/05/08 23:52:53;;;;;;;6.03;5.53;;;16.20;33.20;;;;;;10444153;28;20696;-64
2023/05/08 23:57:58;;;;;;;5.70;5.30;;;16.20;33.40;;;;;;10445873;28;20951;-65
